sensor_id;sensor_type;location;lat;lon;timestamp;pressure;altitude;pressure_sealevel;temperature;humidity
8101;BME280;4093;53.470;9.832;2023-02-28T00:04:46;103091.25;;;5.59;72.20
8101;BME280;4093;53.470;9.832;2023-02-28T00:07:31;103101.03;;;6.10;70.90
8101;BME280;4093;53.470;9.832;2023-02-28T00:09:59;103085.75;;;5.50;72.53
8101;BME280;4093;53.470;9.832;2023-02-28T00:12:27;103098.22;;;5.62;72.78
8101;BME280;4093;53.470;9.832;2023-02-28T00:14:54;103091.03;;;5.54;72.64
8101;BME280;4093;53.470;9.832;2023-02-28T00:17:22;103099.06;;;6.04;71.35
8101;BME280;4093;53.470;9.832;2023-02-28T00:19:50;103082.22;;;5.90;71.42
8101;BME280;4093;53.470;9.832;2023-02-28T00:22:19;103095.75;;;5.86;72.08
8101;BME280;4093;53.470;9.832;2023-02-28T00:24:49;103098.97;;;6.01;71.95
8101;BME280;4093;53.470;9.832;2023-02-28T00:27:16;103094.53;;;5.97;71.65
8101;BME280;4093;53.470;9.832;2023-02-28T00:29:46;103086.78;;;5.76;72.03
8101;BME280;4093;53.470;9.832;2023-02-28T00:32:14;103090.44;;;5.60;73.19
8101;BME280;4093;53.470;9.832;2023-02-28T00:34:42;103091.13;;;5.56;73.26
8101;BME280;4093;53.470;9.832;2023-02-28T00:37:10;103089.31;;;5.53;73.37
8101;BME280;4093;53.470;9.832;2023-02-28T00:39:39;103088.69;;;5.80;72.19
8101;BME280;4093;53.470;9.832;2023-02-28T00:42:08;103074.84;;;5.76;71.56
8101;BME280;4093;53.470;9.832;2023-02-28T00:44:36;103074.34;;;4.64;75.66
8101;BME280;4093;53.470;9.832;2023-02-28T00:47:04;103095.31;;;4.75;75.74
8101;BME280;4093;53.470;9.832;2023-02-28T00:49:31;103101.78;;;5.25;75.15
8101;BME280;4093;53.470;9.832;2023-02-28T00:51:59;103100.59;;;5.78;72.88
8101;BME280;4093;53.470;9.832;2023-02-28T00:54:27;103099.38;;;5.91;71.76
8101;BME280;4093;53.470;9.832;2023-02-28T00:56:55;103099.38;;;5.91;71.67
8101;BME280;4093;53.470;9.832;2023-02-28T00:59:24;103108.59;;;6.07;71.12
8101;BME280;4093;53.470;9.832;2023-02-28T01:01:51;103098.63;;;5.72;71.67
8101;BME280;4093;53.470;9.832;2023-02-28T01:04:19;103094.81;;;5.84;71.06
8101;BME280;4093;53.470;9.832;2023-02-28T01:06:47;103091.25;;;5.59;72.03
8101;BME280;4093;53.470;9.832;2023-02-28T01:09:14;103097.94;;;5.15;74.36
8101;BME280;4093;53.470;9.832;2023-02-28T01:11:42;103089.78;;;4.66;75.78
8101;BME280;4093;53.470;9.832;2023-02-28T01:14:12;103098.84;;;4.39;77.76
8101;BME280;4093;53.470;9.832;2023-02-28T01:16:42;103108.81;;;4.71;75.85
8101;BME280;4093;53.470;9.832;2023-02-28T01:19:10;103109.00;;;4.75;75.68
8101;BME280;4093;53.470;9.832;2023-02-28T01:21:38;103108.38;;;4.24;77.89
8101;BME280;4093;53.470;9.832;2023-02-28T01:24:06;103118.78;;;4.64;77.05
8101;BME280;4093;53.470;9.832;2023-02-28T01:26:34;103125.63;;;5.03;76.53
8101;BME280;4093;53.470;9.832;2023-02-28T01:29:02;103119.66;;;5.43;75.18
8101;BME280;4093;53.470;9.832;2023-02-28T01:31:29;103115.34;;;5.63;73.51
8101;BME280;4093;53.470;9.832;2023-02-28T01:33:59;103109.91;;;5.76;73.04
8101;BME280;4093;53.470;9.832;2023-02-28T01:36:26;103098.25;;;5.23;73.06
8101;BME280;4093;53.470;9.832;2023-02-28T01:38:54;103104.66;;;5.32;74.09
8101;BME280;4093;53.470;9.832;2023-02-28T01:41:24;103099.78;;;5.39;72.22
8101;BME280;4093;53.470;9.832;2023-02-28T01:43:59;103098.69;;;5.13;74.59
8101;BME280;4093;53.470;9.832;2023-02-28T01:46:30;103100.81;;;4.45;76.67
8101;BME280;4093;53.470;9.832;2023-02-28T01:49:03;103113.44;;;4.60;76.33
8101;BME280;4093;53.470;9.832;2023-02-28T01:51:37;103106.53;;;4.96;74.21
8101;BME280;4093;53.470;9.832;2023-02-28T01:54:08;103106.03;;;5.24;73.97
8101;BME280;4093;53.470;9.832;2023-02-28T01:56:43;103093.06;;;4.63;74.79
8101;BME280;4093;53.470;9.832;2023-02-28T01:59:14;103101.72;;;4.65;75.96
8101;BME280;4093;53.470;9.832;2023-02-28T02:01:44;103113.69;;;4.84;75.37
8101;BME280;4093;53.470;9.832;2023-02-28T02:04:13;103103.81;;;5.13;73.83
8101;BME280;4093;53.470;9.832;2023-02-28T02:06:43;103103.19;;;5.38;74.24
8101;BME280;4093;53.470;9.832;2023-02-28T02:09:13;103082.56;;;5.15;72.51
8101;BME280;4093;53.470;9.832;2023-02-28T02:11:42;103085.94;;;4.75;74.70
8101;BME280;4093;53.470;9.832;2023-02-28T02:14:28;103094.72;;;5.00;74.25
8101;BME280;4093;53.470;9.832;2023-02-28T02:17:05;103100.66;;;5.18;73.17
8101;BME280;4093;53.470;9.832;2023-02-28T02:19:56;103088.31;;;3.98;76.73
8101;BME280;4093;53.470;9.832;2023-02-28T02:22:45;103085.50;;;4.47;75.48
8101;BME280;4093;53.470;9.832;2023-02-28T02:25:27;103102.19;;;4.76;73.84
8101;BME280;4093;53.470;9.832;2023-02-28T02:28:29;103097.88;;;4.75;73.63
8101;BME280;4093;53.470;9.832;2023-02-28T02:31:29;103099.22;;;4.67;74.51
8101;BME280;4093;53.470;9.832;2023-02-28T02:34:28;103065.41;;;4.36;74.42
8101;BME280;4093;53.470;9.832;2023-02-28T02:37:08;103082.91;;;3.91;75.21
8101;BME280;4093;53.470;9.832;2023-02-28T02:39:47;103086.53;;;3.43;77.78
8101;BME280;4093;53.470;9.832;2023-02-28T02:42:21;103108.94;;;3.65;76.53
8101;BME280;4093;53.470;9.832;2023-02-28T02:44:56;103098.94;;;3.19;78.60
8101;BME280;4093;53.470;9.832;2023-02-28T02:47:29;103113.78;;;3.77;76.82
8101;BME280;4093;53.470;9.832;2023-02-28T02:50:02;103097.28;;;3.54;75.25
8101;BME280;4093;53.470;9.832;2023-02-28T02:52:34;103102.69;;;3.25;77.23
8101;BME280;4093;53.470;9.832;2023-02-28T02:55:06;103103.50;;;3.08;77.84
8101;BME280;4093;53.470;9.832;2023-02-28T02:57:42;103111.16;;;3.24;77.28
8101;BME280;4093;53.470;9.832;2023-02-28T03:00:14;103105.50;;;3.30;77.21
8101;BME280;4093;53.470;9.832;2023-02-28T03:02:44;103105.97;;;3.39;77.03
8101;BME280;4093;53.470;9.832;2023-02-28T03:05:19;103093.22;;;3.23;75.16
8101;BME280;4093;53.470;9.832;2023-02-28T03:07:48;103105.09;;;3.22;75.94
8101;BME280;4093;53.470;9.832;2023-02-28T03:10:31;103100.94;;;3.24;75.73
8101;BME280;4093;53.470;9.832;2023-02-28T03:13:17;103096.41;;;2.86;77.66
8101;BME280;4093;53.470;9.832;2023-02-28T03:16:05;103092.50;;;2.93;76.24
8101;BME280;4093;53.470;9.832;2023-02-28T03:18:44;103098.09;;;2.38;79.43
8101;BME280;4093;53.470;9.832;2023-02-28T03:21:23;103118.09;;;2.78;78.97
8101;BME280;4093;53.470;9.832;2023-02-28T03:24:00;103117.16;;;3.09;78.79
8101;BME280;4093;53.470;9.832;2023-02-28T03:26:31;103112.53;;;3.01;76.30
8101;BME280;4093;53.470;9.832;2023-02-28T03:29:04;103099.75;;;2.69;75.87
8101;BME280;4093;53.470;9.832;2023-02-28T03:31:36;103115.66;;;2.80;77.45
8101;BME280;4093;53.470;9.832;2023-02-28T03:34:08;103119.41;;;3.03;76.09
8101;BME280;4093;53.470;9.832;2023-02-28T03:36:43;103111.25;;;3.10;75.33
8101;BME280;4093;53.470;9.832;2023-02-28T03:39:16;103088.13;;;2.43;76.56
8101;BME280;4093;53.470;9.832;2023-02-28T03:41:49;103111.59;;;2.36;77.78
8101;BME280;4093;53.470;9.832;2023-02-28T03:44:22;103116.34;;;2.77;74.85
8101;BME280;4093;53.470;9.832;2023-02-28T03:46:57;103114.72;;;2.63;77.29
8101;BME280;4093;53.470;9.832;2023-02-28T03:49:30;103101.88;;;2.45;76.24
8101;BME280;4093;53.470;9.832;2023-02-28T03:52:03;103096.69;;;1.97;77.79
8101;BME280;4093;53.470;9.832;2023-02-28T03:54:33;103115.78;;;2.04;78.80
8101;BME280;4093;53.470;9.832;2023-02-28T03:57:07;103114.97;;;2.20;77.16
8101;BME280;4093;53.470;9.832;2023-02-28T03:59:43;103111.63;;;1.91;78.52
8101;BME280;4093;53.470;9.832;2023-02-28T04:02:11;103130.13;;;2.02;78.89
8101;BME280;4093;53.470;9.832;2023-02-28T04:04:39;103142.38;;;2.39;77.77
8101;BME280;4093;53.470;9.832;2023-02-28T04:07:16;103119.97;;;2.49;76.14
8101;BME280;4093;53.470;9.832;2023-02-28T04:09:44;103126.91;;;2.36;75.62
8101;BME280;4093;53.470;9.832;2023-02-28T04:12:12;103120.25;;;2.23;76.67
8101;BME280;4093;53.470;9.832;2023-02-28T04:14:39;103138.16;;;2.39;77.13
8101;BME280;4093;53.470;9.832;2023-02-28T04:17:07;103135.00;;;2.60;75.58
8101;BME280;4093;53.470;9.832;2023-02-28T04:19:34;103119.59;;;2.27;75.24
8101;BME280;4093;53.470;9.832;2023-02-28T04:22:02;103127.78;;;2.36;76.89
8101;BME280;4093;53.470;9.832;2023-02-28T04:24:31;103107.34;;;1.90;76.27
8101;BME280;4093;53.470;9.832;2023-02-28T04:26:58;103135.22;;;2.17;77.28
8101;BME280;4093;53.470;9.832;2023-02-28T04:29:28;103130.56;;;2.41;75.54
8101;BME280;4093;53.470;9.832;2023-02-28T04:31:56;103101.81;;;1.68;76.86
8101;BME280;4093;53.470;9.832;2023-02-28T04:34:25;103115.06;;;1.47;78.52
8101;BME280;4093;53.470;9.832;2023-02-28T04:36:54;103098.38;;;1.23;78.93
8101;BME280;4093;53.470;9.832;2023-02-28T04:39:39;103122.00;;;1.20;79.88
8101;BME280;4093;53.470;9.832;2023-02-28T04:42:09;103135.41;;;1.60;78.92
8101;BME280;4093;53.470;9.832;2023-02-28T04:44:36;103140.66;;;1.93;76.18
8101;BME280;4093;53.470;9.832;2023-02-28T04:47:04;103114.00;;;1.44;78.16
8101;BME280;4093;53.470;9.832;2023-02-28T04:49:32;103139.63;;;1.90;77.56
8101;BME280;4093;53.470;9.832;2023-02-28T04:51:59;103138.63;;;2.17;77.20
8101;BME280;4093;53.470;9.832;2023-02-28T04:54:27;103122.38;;;2.00;76.18
8101;BME280;4093;53.470;9.832;2023-02-28T04:56:56;103107.09;;;1.41;77.44
8101;BME280;4093;53.470;9.832;2023-02-28T04:59:24;103115.31;;;1.37;77.78
8101;BME280;4093;53.470;9.832;2023-02-28T05:01:52;103105.06;;;1.35;76.47
8101;BME280;4093;53.470;9.832;2023-02-28T05:04:19;103122.25;;;1.25;77.46
8101;BME280;4093;53.470;9.832;2023-02-28T05:06:47;103124.78;;;0.68;79.10
8101;BME280;4093;53.470;9.832;2023-02-28T05:09:15;103136.28;;;0.90;79.76
8101;BME280;4093;53.470;9.832;2023-02-28T05:11:42;103133.19;;;0.81;78.91
8101;BME280;4093;53.470;9.832;2023-02-28T05:14:13;103145.91;;;0.81;80.25
8101;BME280;4093;53.470;9.832;2023-02-28T05:16:41;103140.28;;;0.58;80.91
8101;BME280;4093;53.470;9.832;2023-02-28T05:19:09;103150.97;;;0.66;81.25
8101;BME280;4093;53.470;9.832;2023-02-28T05:21:39;103159.72;;;0.84;81.14
8101;BME280;4093;53.470;9.832;2023-02-28T05:24:09;103161.19;;;0.81;81.02
8101;BME280;4093;53.470;9.832;2023-02-28T05:26:40;103171.16;;;1.19;80.28
8101;BME280;4093;53.470;9.832;2023-02-28T05:29:09;103157.00;;;1.52;78.73
8101;BME280;4093;53.470;9.832;2023-02-28T05:31:38;103140.63;;;1.34;77.01
8101;BME280;4093;53.470;9.832;2023-02-28T05:34:06;103149.84;;;0.76;79.77
8101;BME280;4093;53.470;9.832;2023-02-28T05:36:36;103164.25;;;1.17;77.88
8101;BME280;4093;53.470;9.832;2023-02-28T05:39:05;103139.97;;;0.67;79.44
8101;BME280;4093;53.470;9.832;2023-02-28T05:41:33;103159.75;;;0.71;80.53
8101;BME280;4093;53.470;9.832;2023-02-28T05:44:01;103134.84;;;0.39;80.88
8101;BME280;4093;53.470;9.832;2023-02-28T05:46:28;103147.13;;;0.59;78.96
8101;BME280;4093;53.470;9.832;2023-02-28T05:48:57;103142.25;;;0.09;81.93
8101;BME280;4093;53.470;9.832;2023-02-28T05:51:26;103161.03;;;0.25;82.50
8101;BME280;4093;53.470;9.832;2023-02-28T05:53:58;103176.50;;;0.54;81.18
8101;BME280;4093;53.470;9.832;2023-02-28T05:56:26;103146.09;;;0.16;80.78
8101;BME280;4093;53.470;9.832;2023-02-28T05:58:54;103153.00;;;-0.21;82.32
8101;BME280;4093;53.470;9.832;2023-02-28T06:01:25;103182.28;;;0.38;81.11
8101;BME280;4093;53.470;9.832;2023-02-28T06:03:59;103188.44;;;0.68;79.41
8101;BME280;4093;53.470;9.832;2023-02-28T06:06:27;103183.91;;;0.91;78.36
8101;BME280;4093;53.470;9.832;2023-02-28T06:08:56;103158.25;;;0.88;77.24
8101;BME280;4093;53.470;9.832;2023-02-28T06:11:24;103159.28;;;0.50;78.57
8101;BME280;4093;53.470;9.832;2023-02-28T06:13:54;103173.28;;;0.57;79.28
8101;BME280;4093;53.470;9.832;2023-02-28T06:16:23;103166.72;;;0.60;78.21
8101;BME280;4093;53.470;9.832;2023-02-28T06:18:50;103166.31;;;0.28;79.59
8101;BME280;4093;53.470;9.832;2023-02-28T06:21:20;103174.34;;;0.20;80.29
8101;BME280;4093;53.470;9.832;2023-02-28T06:23:47;103178.25;;;0.02;81.06
8101;BME280;4093;53.470;9.832;2023-02-28T06:26:15;103176.22;;;0.23;79.83
8101;BME280;4093;53.470;9.832;2023-02-28T06:28:43;103187.06;;;0.34;79.53
8101;BME280;4093;53.470;9.832;2023-02-28T06:31:13;103196.84;;;0.67;78.25
8101;BME280;4093;53.470;9.832;2023-02-28T06:33:42;103183.38;;;0.29;79.91
8101;BME280;4093;53.470;9.832;2023-02-28T06:36:11;103187.47;;;0.27;80.16
8101;BME280;4093;53.470;9.832;2023-02-28T06:38:41;103208.41;;;0.76;77.75
8101;BME280;4093;53.470;9.832;2023-02-28T06:41:09;103189.72;;;0.35;78.83
8101;BME280;4093;53.470;9.832;2023-02-28T06:43:39;103202.16;;;0.57;78.86
8101;BME280;4093;53.470;9.832;2023-02-28T06:46:11;103209.56;;;0.94;77.36
8101;BME280;4093;53.470;9.832;2023-02-28T06:48:39;103202.03;;;1.24;75.80
8101;BME280;4093;53.470;9.832;2023-02-28T06:51:08;103191.97;;;1.12;75.99
8101;BME280;4093;53.470;9.832;2023-02-28T06:53:36;103180.03;;;0.69;77.16
8101;BME280;4093;53.470;9.832;2023-02-28T06:56:08;103170.16;;;0.21;79.62
8101;BME280;4093;53.470;9.832;2023-02-28T06:58:36;103202.25;;;0.45;80.03
8101;BME280;4093;53.470;9.832;2023-02-28T07:01:06;103189.53;;;0.32;80.45
8101;BME280;4093;53.470;9.832;2023-02-28T07:03:35;103189.63;;;0.20;81.75
8101;BME280;4093;53.470;9.832;2023-02-28T07:06:04;103209.69;;;1.81;80.53
8101;BME280;4093;53.470;9.832;2023-02-28T07:08:31;103184.72;;;4.51;73.72
8101;BME280;4093;53.470;9.832;2023-02-28T07:10:59;103150.00;;;6.14;65.70
8101;BME280;4093;53.470;9.832;2023-02-28T07:13:28;103153.59;;;6.40;61.10
8101;BME280;4093;53.470;9.832;2023-02-28T07:15:57;103140.28;;;7.71;57.60
8101;BME280;4093;53.470;9.832;2023-02-28T07:18:25;103151.59;;;7.74;58.19
8101;BME280;4093;53.470;9.832;2023-02-28T07:20:54;103145.59;;;7.75;55.93
8101;BME280;4093;53.470;9.832;2023-02-28T07:23:22;103133.16;;;7.89;55.88
8101;BME280;4093;53.470;9.832;2023-02-28T07:25:50;103140.22;;;9.74;55.54
8101;BME280;4093;53.470;9.832;2023-02-28T07:28:18;103130.28;;;11.56;51.32
8101;BME280;4093;53.470;9.832;2023-02-28T07:30:47;103120.59;;;12.55;48.67
8101;BME280;4093;53.470;9.832;2023-02-28T07:33:15;103118.91;;;13.32;47.09
8101;BME280;4093;53.470;9.832;2023-02-28T07:35:43;103104.41;;;13.58;45.51
8101;BME280;4093;53.470;9.832;2023-02-28T07:38:11;103109.03;;;11.77;47.16
8101;BME280;4093;53.470;9.832;2023-02-28T07:40:39;103124.38;;;9.60;52.27
8101;BME280;4093;53.470;9.832;2023-02-28T07:43:07;103114.00;;;11.15;50.83
8101;BME280;4093;53.470;9.832;2023-02-28T07:45:35;103102.47;;;11.46;49.95
8101;BME280;4093;53.470;9.832;2023-02-28T07:48:04;103103.47;;;11.04;49.57
8101;BME280;4093;53.470;9.832;2023-02-28T07:50:32;103112.88;;;11.00;50.56
8101;BME280;4093;53.470;9.832;2023-02-28T07:53:01;103114.25;;;11.78;51.45
8101;BME280;4093;53.470;9.832;2023-02-28T07:55:28;103110.47;;;11.58;51.35
8101;BME280;4093;53.470;9.832;2023-02-28T07:57:56;103108.91;;;11.68;49.53
8101;BME280;4093;53.470;9.832;2023-02-28T08:00:24;103108.47;;;12.54;49.15
8101;BME280;4093;53.470;9.832;2023-02-28T08:02:51;103107.41;;;14.14;46.41
8101;BME280;4093;53.470;9.832;2023-02-28T08:05:20;103097.41;;;15.24;43.66
8101;BME280;4093;53.470;9.832;2023-02-28T08:07:48;103099.09;;;16.23;42.03
8101;BME280;4093;53.470;9.832;2023-02-28T08:10:16;103097.06;;;16.97;41.45
8101;BME280;4093;53.470;9.832;2023-02-28T08:12:44;103084.53;;;17.41;40.78
8101;BME280;4093;53.470;9.832;2023-02-28T08:15:12;103080.66;;;17.88;37.36
8101;BME280;4093;53.470;9.832;2023-02-28T08:17:39;103098.56;;;19.53;37.66
8101;BME280;4093;53.470;9.832;2023-02-28T08:20:08;103080.38;;;19.93;36.83
8101;BME280;4093;53.470;9.832;2023-02-28T08:22:38;103090.34;;;20.19;36.37
8101;BME280;4093;53.470;9.832;2023-02-28T08:25:06;103087.56;;;20.70;36.56
8101;BME280;4093;53.470;9.832;2023-02-28T08:27:34;103091.28;;;21.38;35.69
8101;BME280;4093;53.470;9.832;2023-02-28T08:30:03;103082.84;;;22.23;32.66
8101;BME280;4093;53.470;9.832;2023-02-28T08:32:32;103073.19;;;21.91;32.56
8101;BME280;4093;53.470;9.832;2023-02-28T08:35:00;103084.47;;;22.27;31.70
8101;BME280;4093;53.470;9.832;2023-02-28T08:37:29;103081.88;;;21.94;31.92
8101;BME280;4093;53.470;9.832;2023-02-28T08:39:58;103082.78;;;23.12;30.99
8101;BME280;4093;53.470;9.832;2023-02-28T08:42:25;103075.03;;;22.50;31.12
8101;BME280;4093;53.470;9.832;2023-02-28T08:44:53;103071.91;;;22.65;30.04
8101;BME280;4093;53.470;9.832;2023-02-28T08:47:21;103071.00;;;23.75;29.19
8101;BME280;4093;53.470;9.832;2023-02-28T08:49:48;103074.22;;;23.32;29.69
8101;BME280;4093;53.470;9.832;2023-02-28T08:52:16;103068.13;;;23.30;29.55
8101;BME280;4093;53.470;9.832;2023-02-28T08:54:44;103068.25;;;23.52;29.88
8101;BME280;4093;53.470;9.832;2023-02-28T08:57:13;103062.44;;;23.41;28.67
8101;BME280;4093;53.470;9.832;2023-02-28T08:59:41;103068.69;;;23.65;28.47
8101;BME280;4093;53.470;9.832;2023-02-28T09:02:09;103071.91;;;22.67;28.98
8101;BME280;4093;53.470;9.832;2023-02-28T09:04:39;103078.22;;;22.00;29.46
8101;BME280;4093;53.470;9.832;2023-02-28T09:07:07;103083.50;;;23.17;29.28
8101;BME280;4093;53.470;9.832;2023-02-28T09:09:34;103078.91;;;21.74;29.80
8101;BME280;4093;53.470;9.832;2023-02-28T09:12:02;103089.88;;;19.49;31.54
8101;BME280;4093;53.470;9.832;2023-02-28T09:14:32;103106.38;;;17.37;34.51
8101;BME280;4093;53.470;9.832;2023-02-28T09:17:00;103131.34;;;15.55;37.72
8101;BME280;4093;53.470;9.832;2023-02-28T09:19:27;103123.31;;;14.69;39.49
8101;BME280;4093;53.470;9.832;2023-02-28T09:21:55;103141.56;;;13.48;41.74
8101;BME280;4093;53.470;9.832;2023-02-28T09:24:23;103150.81;;;12.53;43.53
8101;BME280;4093;53.470;9.832;2023-02-28T09:26:50;103155.91;;;12.45;43.67
8101;BME280;4093;53.470;9.832;2023-02-28T09:29:30;103157.38;;;12.26;41.59
8101;BME280;4093;53.470;9.832;2023-02-28T09:31:59;103150.81;;;11.94;41.22
8101;BME280;4093;53.470;9.832;2023-02-28T09:34:27;103158.53;;;11.42;42.84
8101;BME280;4093;53.470;9.832;2023-02-28T09:36:57;103173.22;;;11.42;43.14
8101;BME280;4093;53.470;9.832;2023-02-28T09:39:25;103173.78;;;10.81;44.87
8101;BME280;4093;53.470;9.832;2023-02-28T09:41:55;103187.09;;;9.88;45.76
8101;BME280;4093;53.470;9.832;2023-02-28T09:44:28;103183.16;;;10.78;43.49
8101;BME280;4093;53.470;9.832;2023-02-28T09:47:03;103178.50;;;10.61;45.46
8101;BME280;4093;53.470;9.832;2023-02-28T09:49:37;103182.09;;;10.68;44.50
8101;BME280;4093;53.470;9.832;2023-02-28T09:52:10;103189.91;;;10.70;44.14
8101;BME280;4093;53.470;9.832;2023-02-28T09:54:39;103189.66;;;10.59;45.27
8101;BME280;4093;53.470;9.832;2023-02-28T09:57:11;103163.38;;;10.06;46.73
8101;BME280;4093;53.470;9.832;2023-02-28T09:59:51;103191.84;;;10.40;47.13
8101;BME280;4093;53.470;9.832;2023-02-28T10:02:41;103186.28;;;10.25;44.97
8101;BME280;4093;53.470;9.832;2023-02-28T10:05:15;103197.03;;;9.72;45.78
8101;BME280;4093;53.470;9.832;2023-02-28T10:07:56;103195.00;;;9.61;46.80
8101;BME280;4093;53.470;9.832;2023-02-28T10:10:33;103207.59;;;8.88;47.75
8101;BME280;4093;53.470;9.832;2023-02-28T10:13:04;103214.16;;;9.69;47.31
8101;BME280;4093;53.470;9.832;2023-02-28T10:15:34;103210.91;;;9.76;48.33
8101;BME280;4093;53.470;9.832;2023-02-28T10:18:05;103191.91;;;9.42;47.81
8101;BME280;4093;53.470;9.832;2023-02-28T10:20:40;103199.09;;;8.92;49.18
8101;BME280;4093;53.470;9.832;2023-02-28T10:23:14;103201.50;;;8.30;49.07
8101;BME280;4093;53.470;9.832;2023-02-28T10:25:48;103219.44;;;7.76;51.69
8101;BME280;4093;53.470;9.832;2023-02-28T10:28:19;103210.84;;;8.01;50.81
8101;BME280;4093;53.470;9.832;2023-02-28T10:30:48;103208.97;;;8.48;50.02
8101;BME280;4093;53.470;9.832;2023-02-28T10:33:22;103222.72;;;8.76;50.10
8101;BME280;4093;53.470;9.832;2023-02-28T10:35:50;103214.38;;;9.45;48.37
8101;BME280;4093;53.470;9.832;2023-02-28T10:38:21;103208.00;;;8.19;50.60
8101;BME280;4093;53.470;9.832;2023-02-28T10:40:49;103219.72;;;8.09;51.48
8101;BME280;4093;53.470;9.832;2023-02-28T10:43:20;103218.25;;;7.18;52.00
8101;BME280;4093;53.470;9.832;2023-02-28T10:45:57;103225.56;;;7.80;51.02
8101;BME280;4093;53.470;9.832;2023-02-28T10:48:32;103227.75;;;8.71;51.02
8101;BME280;4093;53.470;9.832;2023-02-28T10:51:00;103226.66;;;8.65;51.44
8101;BME280;4093;53.470;9.832;2023-02-28T10:53:33;103224.69;;;8.85;49.80
8101;BME280;4093;53.470;9.832;2023-02-28T10:56:23;103209.78;;;7.95;51.44
8101;BME280;4093;53.470;9.832;2023-02-28T10:58:54;103202.41;;;7.80;51.23
8101;BME280;4093;53.470;9.832;2023-02-28T11:01:25;103216.16;;;9.16;49.45
8101;BME280;4093;53.470;9.832;2023-02-28T11:04:03;103221.91;;;9.07;48.70
8101;BME280;4093;53.470;9.832;2023-02-28T11:06:32;103214.81;;;9.62;48.31
8101;BME280;4093;53.470;9.832;2023-02-28T11:09:03;103205.91;;;9.50;47.80
8101;BME280;4093;53.470;9.832;2023-02-28T11:11:42;103214.50;;;9.81;48.30
8101;BME280;4093;53.470;9.832;2023-02-28T11:14:19;103195.69;;;8.10;49.74
8101;BME280;4093;53.470;9.832;2023-02-28T11:16:48;103206.47;;;9.09;49.41
8101;BME280;4093;53.470;9.832;2023-02-28T11:19:22;103161.25;;;9.55;48.69
8101;BME280;4093;53.470;9.832;2023-02-28T11:21:55;103194.56;;;9.14;50.54
8101;BME280;4093;53.470;9.832;2023-02-28T11:24:26;103186.66;;;9.08;50.30
8101;BME280;4093;53.470;9.832;2023-02-28T11:26:55;103191.13;;;8.29;52.52
8101;BME280;4093;53.470;9.832;2023-02-28T11:29:24;103212.28;;;8.71;51.62
8101;BME280;4093;53.470;9.832;2023-02-28T11:32:12;103178.66;;;8.41;51.17
8101;BME280;4093;53.470;9.832;2023-02-28T11:34:43;103182.88;;;7.61;52.57
8101;BME280;4093;53.470;9.832;2023-02-28T11:37:13;103197.94;;;8.27;52.29
8101;BME280;4093;53.470;9.832;2023-02-28T11:39:42;103182.22;;;7.67;53.40
8101;BME280;4093;53.470;9.832;2023-02-28T11:42:23;103181.91;;;8.08;52.61
8101;BME280;4093;53.470;9.832;2023-02-28T11:45:15;103145.53;;;9.14;50.05
8101;BME280;4093;53.470;9.832;2023-02-28T11:47:48;103189.41;;;9.45;49.45
8101;BME280;4093;53.470;9.832;2023-02-28T11:50:39;103186.31;;;9.25;49.73
8101;BME280;4093;53.470;9.832;2023-02-28T11:53:17;103173.63;;;9.03;51.40
8101;BME280;4093;53.470;9.832;2023-02-28T11:55:49;103183.88;;;9.63;50.06
8101;BME280;4093;53.470;9.832;2023-02-28T11:58:29;103170.91;;;9.29;49.78
8101;BME280;4093;53.470;9.832;2023-02-28T12:01:11;103169.19;;;8.40;52.33
8101;BME280;4093;53.470;9.832;2023-02-28T12:03:55;103159.97;;;8.77;50.28
8101;BME280;4093;53.470;9.832;2023-02-28T12:06:31;103157.50;;;8.24;51.38
8101;BME280;4093;53.470;9.832;2023-02-28T12:12:02;103170.75;;;9.56;51.25
8101;BME280;4093;53.470;9.832;2023-02-28T12:14:56;103144.63;;;9.43;52.44
8101;BME280;4093;53.470;9.832;2023-02-28T12:17:38;103144.59;;;9.77;50.00
8101;BME280;4093;53.470;9.832;2023-02-28T12:20:19;103131.66;;;9.42;49.58
8101;BME280;4093;53.470;9.832;2023-02-28T12:22:57;103128.31;;;8.52;51.97
8101;BME280;4093;53.470;9.832;2023-02-28T12:25:40;103126.44;;;8.48;51.89
8101;BME280;4093;53.470;9.832;2023-02-28T12:28:14;103128.03;;;8.43;51.72
8101;BME280;4093;53.470;9.832;2023-02-28T12:30:49;103133.63;;;9.50;50.59
8101;BME280;4093;53.470;9.832;2023-02-28T12:33:22;103121.31;;;9.75;49.48
8101;BME280;4093;53.470;9.832;2023-02-28T12:35:55;103129.94;;;10.12;49.05
8101;BME280;4093;53.470;9.832;2023-02-28T12:38:27;103120.72;;;10.61;48.17
8101;BME280;4093;53.470;9.832;2023-02-28T12:40:59;103056.56;;;10.45;47.95
8101;BME280;4093;53.470;9.832;2023-02-28T12:43:32;103099.75;;;10.47;47.98
8101;BME280;4093;53.470;9.832;2023-02-28T12:46:07;103089.66;;;9.49;49.28
8101;BME280;4093;53.470;9.832;2023-02-28T12:48:40;103092.00;;;10.11;48.43
8101;BME280;4093;53.470;9.832;2023-02-28T12:51:10;103082.22;;;8.65;50.36
8101;BME280;4093;53.470;9.832;2023-02-28T12:53:49;103095.38;;;8.72;51.69
8101;BME280;4093;53.470;9.832;2023-02-28T12:56:22;103095.78;;;9.87;50.26
8101;BME280;4093;53.470;9.832;2023-02-28T12:58:59;103089.19;;;10.02;49.27
8101;BME280;4093;53.470;9.832;2023-02-28T13:01:42;103068.97;;;9.47;47.75
8101;BME280;4093;53.470;9.832;2023-02-28T13:04:31;103074.22;;;9.17;48.43
8101;BME280;4093;53.470;9.832;2023-02-28T13:07:16;103070.06;;;9.57;47.02
8101;BME280;4093;53.470;9.832;2023-02-28T13:09:56;103055.31;;;8.85;46.81
8101;BME280;4093;53.470;9.832;2023-02-28T13:12:25;103068.59;;;9.32;47.80
8101;BME280;4093;53.470;9.832;2023-02-28T13:15:07;103055.72;;;10.06;45.97
8101;BME280;4093;53.470;9.832;2023-02-28T13:17:39;103057.81;;;10.63;44.97
8101;BME280;4093;53.470;9.832;2023-02-28T13:20:17;103037.69;;;9.35;46.44
8101;BME280;4093;53.470;9.832;2023-02-28T13:22:46;103037.44;;;9.99;45.48
8101;BME280;4093;53.470;9.832;2023-02-28T13:34:41;103014.25;;;10.02;42.30
8101;BME280;4093;53.470;9.832;2023-02-28T13:37:33;103029.28;;;9.44;42.68
8101;BME280;4093;53.470;9.832;2023-02-28T13:40:27;103034.00;;;10.00;41.53
8101;BME280;4093;53.470;9.832;2023-02-28T13:42:55;103006.72;;;9.37;40.22
8101;BME280;4093;53.470;9.832;2023-02-28T13:45:26;103026.81;;;9.48;40.66
8101;BME280;4093;53.470;9.832;2023-02-28T13:47:56;103032.00;;;10.67;39.77
8101;BME280;4093;53.470;9.832;2023-02-28T13:50:33;103008.31;;;9.68;39.70
8101;BME280;4093;53.470;9.832;2023-02-28T13:53:26;103019.31;;;10.35;39.83
8101;BME280;4093;53.470;9.832;2023-02-28T13:56:00;103012.78;;;9.37;39.90
8101;BME280;4093;53.470;9.832;2023-02-28T13:58:45;103011.47;;;9.20;40.16
8101;BME280;4093;53.470;9.832;2023-02-28T14:01:23;103021.72;;;9.89;38.75